Time;durP1;ratioP1;P1;durP2;ratioP2;P2;SDS_P1;SDS_P2;PMS_P1;PMS_P2;Temp;Humidity;BMP_temperature;BMP_pressure;BME280_temperature;BME280_humidity;BME280_pressure;Samples;Min_cycle;Max_cycle;Signal;HPM_P1;HPM_P2
2023/02/03 00:01:00;;;;;;;16.15;3.47;;;1.70;100.00;;;;;;4937085;28;20053;-79
2023/02/03 00:03:27;;;;;;;15.10;3.42;;;1.60;100.00;;;;;;4942096;28;20395;-80
2023/02/03 00:05:54;;;;;;;12.05;3.17;;;1.60;100.00;;;;;;4955769;28;20051;-79
2023/02/03 00:08:22;;;;;;;18.77;3.50;;;1.60;100.00;;;;;;4932392;28;20178;-79
2023/02/03 00:10:50;;;;;;;13.25;3.50;;;1.70;100.00;;;;;;4955149;28;20050;-79
2023/02/03 00:13:17;;;;;;;12.07;3.90;;;1.70;100.00;;;;;;4934868;28;20054;-80
2023/02/03 00:15:44;;;;;;;16.67;3.80;;;1.70;100.00;;;;;;4945240;28;20066;-80
2023/02/03 00:18:10;;;;;;;25.77;3.83;;;1.70;100.00;;;;;;4934846;28;20066;-80
2023/02/03 00:20:38;;;;;;;20.13;4.25;;;1.70;100.00;;;;;;4936259;28;20122;-80
2023/02/03 00:23:07;;;;;;;14.63;4.63;;;1.70;100.00;;;;;;4933755;28;20055;-80
2023/02/03 00:25:35;;;;;;;13.88;4.82;;;1.70;100.00;;;;;;4937256;28;20051;-80
2023/02/03 00:28:02;;;;;;;19.65;4.90;;;1.70;100.00;;;;;;4949012;28;20379;-80
2023/02/03 00:30:29;;;;;;;22.35;4.60;;;1.70;100.00;;;;;;4933691;28;20082;-81
2023/02/03 00:32:56;;;;;;;13.25;4.13;;;1.70;100.00;;;;;;4969470;28;20452;-80
2023/02/03 00:35:23;;;;;;;11.35;3.60;;;1.70;100.00;;;;;;4954228;28;20122;-80
2023/02/03 00:37:52;;;;;;;11.68;4.03;;;1.70;100.00;;;;;;4936433;28;20392;-81
2023/02/03 00:43:13;;;;;;;15.80;3.67;;;1.70;100.00;;;;;;4897750;29;20124;-81
2023/02/03 00:45:41;;;;;;;11.13;3.15;;;1.60;100.00;;;;;;4882868;29;20079;-81
2023/02/03 00:48:08;;;;;;;12.23;3.25;;;1.60;100.00;;;;;;4881848;29;20143;-81
2023/02/03 00:50:35;;;;;;;9.70;3.65;;;1.60;100.00;;;;;;4902969;29;20468;-81
2023/02/03 00:53:02;;;;;;;5.13;2.38;;;1.60;100.00;;;;;;4900750;29;20572;-82
2023/02/03 00:55:29;;;;;;;8.55;2.92;;;1.50;100.00;;;;;;4889002;29;20468;-81
2023/02/03 00:57:55;;;;;;;8.45;2.38;;;1.50;100.00;;;;;;4902347;29;21172;-81
2023/02/03 01:00:22;;;;;;;8.20;2.35;;;1.50;100.00;;;;;;4901181;29;20064;-82
2023/02/03 01:02:50;;;;;;;8.52;2.90;;;1.50;100.00;;;;;;4899817;29;20119;-82
2023/02/03 01:05:17;;;;;;;12.52;3.00;;;1.40;100.00;;;;;;4884910;29;20056;-82
2023/02/03 01:07:44;;;;;;;7.13;2.95;;;1.40;100.00;;;;;;4902831;29;20079;-82
2023/02/03 01:12:42;;;;;;;14.77;2.97;;;1.40;100.00;;;;;;4928865;28;20543;-80
2023/02/03 01:15:09;;;;;;;10.50;2.95;;;1.40;100.00;;;;;;4930698;29;20063;-81
2023/02/03 01:17:36;;;;;;;4.63;2.00;;;1.30;100.00;;;;;;4947483;28;20098;-80
2023/02/03 01:20:03;;;;;;;5.15;2.70;;;1.40;100.00;;;;;;4931839;28;20055;-81
2023/02/03 01:22:31;;;;;;;6.68;2.63;;;1.30;100.00;;;;;;4931471;28;20055;-81
2023/02/03 01:24:57;;;;;;;5.85;2.53;;;1.30;100.00;;;;;;4941451;28;20318;-80
2023/02/03 01:27:24;;;;;;;8.82;2.20;;;1.30;100.00;;;;;;4936762;28;20123;-81
2023/02/03 01:29:51;;;;;;;4.78;2.60;;;1.30;100.00;;;;;;4946580;28;20051;-80
2023/02/03 01:32:18;;;;;;;6.78;2.65;;;1.30;100.00;;;;;;4928613;28;20075;-80
2023/02/03 01:34:45;;;;;;;6.57;2.47;;;1.30;100.00;;;;;;4928683;29;20055;-80
2023/02/03 01:37:13;;;;;;;7.10;2.17;;;1.30;100.00;;;;;;4934523;28;20170;-81
2023/02/03 01:39:40;;;;;;;3.50;1.80;;;1.20;100.00;;;;;;4932534;28;20067;-80
2023/02/03 01:42:11;;;;;;;5.00;2.03;;;1.20;100.00;;;;;;4931607;28;20238;-81
2023/02/03 01:44:41;;;;;;;9.07;1.98;;;1.20;100.00;;;;;;4934759;29;20456;-80
2023/02/03 01:47:10;;;;;;;5.95;1.92;;;1.30;100.00;;;;;;4927881;28;20059;-81
2023/02/03 01:49:39;;;;;;;2.97;1.60;;;1.30;100.00;;;;;;4932933;29;20056;-80
2023/02/03 01:52:06;;;;;;;5.90;2.30;;;1.30;100.00;;;;;;4952461;28;20055;-81
2023/02/03 01:54:38;;;;;;;3.67;2.00;;;1.30;100.00;;;;;;4940128;29;20547;-79
2023/02/03 01:57:12;;;;;;;4.40;1.88;;;1.30;100.00;;;;;;4937888;28;20544;-79
2023/02/03 01:59:39;;;;;;;4.22;1.90;;;1.30;100.00;;;;;;4949064;28;20058;-79
2023/02/03 02:02:07;;;;;;;3.40;1.40;;;1.30;100.00;;;;;;4934388;28;20062;-79
2023/02/03 02:04:49;;;;;;;6.13;1.20;;;1.30;100.00;;;;;;4935400;28;20505;-79
2023/02/03 02:07:16;;;;;;;2.33;1.40;;;1.30;100.00;;;;;;4952924;28;20641;-79
2023/02/03 02:09:44;;;;;;;5.82;1.40;;;1.30;100.00;;;;;;4950208;28;20066;-79
2023/02/03 02:12:12;;;;;;;4.43;1.70;;;1.30;100.00;;;;;;4946827;28;20062;-78
2023/02/03 02:14:39;;;;;;;3.35;0.93;;;1.30;100.00;;;;;;4935246;29;20618;-79
2023/02/03 02:17:55;;;;;;;4.63;1.50;;;1.30;100.00;;;;;;4954651;28;20514;-79
2023/02/03 02:20:39;;;;;;;3.45;1.30;;;1.30;100.00;;;;;;4923831;29;20079;-79
2023/02/03 02:23:33;;;;;;;1.73;1.00;;;1.30;100.00;;;;;;4947924;28;20454;-79
2023/02/03 02:26:19;;;;;;;4.88;1.60;;;1.30;100.00;;;;;;4927633;28;20083;-79
2023/02/03 02:29:01;;;;;;;4.95;1.65;;;1.30;100.00;;;;;;4932123;29;20055;-79
2023/02/03 02:31:59;;;;;;;6.05;1.00;;;1.30;100.00;;;;;;4941802;28;20059;-79
2023/02/03 02:35:04;;;;;;;2.35;1.27;;;1.40;100.00;;;;;;4931199;29;20162;-79
2023/02/03 02:37:40;;;;;;;2.78;1.08;;;1.40;100.00;;;;;;4935368;28;20098;-79
2023/02/03 02:40:29;;;;;;;5.68;1.40;;;1.40;100.00;;;;;;4934935;29;20508;-79
2023/02/03 02:43:11;;;;;;;4.22;1.27;;;1.40;100.00;;;;;;4928875;28;20065;-79
2023/02/03 02:45:58;;;;;;;3.80;1.33;;;1.40;100.00;;;;;;4955485;28;20506;-79
2023/02/03 02:48:28;;;;;;;1.38;0.88;;;1.50;100.00;;;;;;4936343;28;20163;-79
2023/02/03 02:50:57;;;;;;;2.88;1.35;;;1.50;100.00;;;;;;4949516;28;20047;-79
2023/02/03 02:53:30;;;;;;;4.90;1.55;;;1.50;100.00;;;;;;4936227;28;20055;-79
2023/02/03 02:55:58;;;;;;;5.07;1.70;;;1.60;100.00;;;;;;4935213;28;20716;-78
2023/02/03 02:58:28;;;;;;;3.03;1.63;;;1.60;100.00;;;;;;4943721;28;20062;-79
2023/02/03 03:00:57;;;;;;;2.22;1.38;;;1.70;100.00;;;;;;4956341;28;20654;-79
2023/02/03 03:03:24;;;;;;;4.78;1.58;;;1.70;100.00;;;;;;4940690;29;20082;-79
2023/02/03 03:06:22;;;;;;;4.40;2.58;;;1.80;100.00;;;;;;4936414;28;20182;-79
2023/02/03 03:09:15;;;;;;;6.68;2.10;;;1.80;100.00;;;;;;4939942;29;20519;-82
2023/02/03 03:11:49;;;;;;;6.13;2.53;;;1.90;100.00;;;;;;4939068;28;20051;-82
2023/02/03 03:14:19;;;;;;;8.20;3.03;;;2.00;100.00;;;;;;4941066;29;20555;-82
2023/02/03 03:17:02;;;;;;;12.15;4.05;;;2.10;100.00;;;;;;4950489;28;20051;-83
2023/02/03 03:19:54;;;;;;;6.65;3.47;;;2.20;100.00;;;;;;4949873;28;20524;-82
2023/02/03 03:22:30;;;;;;;9.25;3.78;;;2.30;100.00;;;;;;4931330;28;20084;-82
2023/02/03 03:25:05;;;;;;;8.38;4.30;;;2.40;100.00;;;;;;4934425;28;20062;-82
2023/02/03 03:27:39;;;;;;;7.43;3.65;;;2.50;100.00;;;;;;4927637;28;20429;-83
2023/02/03 03:30:31;;;;;;;9.80;3.53;;;2.60;100.00;;;;;;4933920;28;20559;-83
2023/02/03 03:32:58;;;;;;;8.48;4.57;;;2.60;100.00;;;;;;4931934;28;20507;-82
2023/02/03 03:35:32;;;;;;;20.58;7.03;;;2.70;100.00;;;;;;4931149;29;20471;-83
2023/02/03 03:38:15;;;;;;;11.80;5.50;;;2.80;100.00;;;;;;4944193;28;20138;-83
2023/02/03 03:40:49;;;;;;;15.82;4.95;;;2.90;100.00;;;;;;4930573;28;20416;-83
2023/02/03 03:43:22;;;;;;;13.25;5.32;;;3.10;100.00;;;;;;4928980;28;20126;-82
2023/02/03 03:45:59;;;;;;;10.32;4.25;;;3.10;100.00;;;;;;4936710;28;20047;-83
2023/02/03 03:48:46;;;;;;;14.75;5.20;;;3.20;100.00;;;;;;4936810;29;21249;-84
2023/02/03 03:51:21;;;;;;;11.48;4.57;;;3.20;100.00;;;;;;4938455;28;20799;-83
2023/02/03 03:53:51;;;;;;;14.25;5.63;;;3.30;100.00;;;;;;4927241;29;20054;-83
2023/02/03 03:56:29;;;;;;;13.07;5.18;;;3.40;100.00;;;;;;4916172;28;20050;-83
2023/02/03 03:59:00;;;;;;;12.23;5.53;;;3.40;100.00;;;;;;4932317;28;20057;-83
2023/02/03 04:01:29;;;;;;;14.30;5.93;;;3.50;100.00;;;;;;4915908;28;20177;-83
2023/02/03 04:04:01;;;;;;;16.27;5.15;;;3.50;100.00;;;;;;4929548;28;20505;-82
2023/02/03 04:06:27;;;;;;;13.60;6.57;;;3.60;100.00;;;;;;4930969;28;20051;-83
2023/02/03 04:08:54;;;;;;;14.38;5.38;;;3.60;100.00;;;;;;4933609;28;20475;-83
2023/02/03 04:14:07;;;;;;;19.63;6.43;;;3.80;100.00;;;;;;4918876;28;20346;-83
2023/02/03 04:16:34;;;;;;;12.57;5.53;;;3.90;100.00;;;;;;4921058;28;20064;-83
2023/02/03 04:19:01;;;;;;;15.80;6.68;;;3.90;100.00;;;;;;4934218;28;20059;-83
2023/02/03 04:21:29;;;;;;;14.05;6.15;;;4.00;100.00;;;;;;4932261;28;20400;-83
2023/02/03 04:23:57;;;;;;;16.40;6.78;;;4.00;100.00;;;;;;4923997;29;20141;-83
2023/02/03 04:26:24;;;;;;;14.57;6.70;;;4.10;100.00;;;;;;4935981;28;20062;-83
2023/02/03 04:28:51;;;;;;;19.17;6.88;;;4.20;100.00;;;;;;4940476;28;20055;-82
2023/02/03 04:31:19;;;;;;;16.88;6.95;;;4.20;100.00;;;;;;4958547;28;20163;-82
2023/02/03 04:33:46;;;;;;;15.98;6.97;;;4.20;100.00;;;;;;4939644;28;20608;-83
2023/02/03 04:36:14;;;;;;;15.32;7.15;;;4.30;100.00;;;;;;4951516;28;20051;-82
2023/02/03 04:38:50;;;;;;;20.35;7.75;;;4.30;100.00;;;;;;4939022;28;20059;-82
2023/02/03 04:41:20;;;;;;;17.80;7.00;;;4.40;100.00;;;;;;4951419;28;20051;-83
2023/02/03 04:43:51;;;;;;;21.33;8.00;;;4.40;100.00;;;;;;4954724;28;20053;-83
2023/02/03 04:46:19;;;;;;;20.23;7.03;;;4.50;100.00;;;;;;4939357;28;20062;-83
2023/02/03 04:48:46;;;;;;;17.77;7.43;;;4.50;100.00;;;;;;4958800;28;20048;-82
2023/02/03 04:51:13;;;;;;;18.40;7.10;;;4.60;100.00;;;;;;4957883;28;20051;-82
2023/02/03 04:53:40;;;;;;;19.90;7.00;;;4.60;100.00;;;;;;4940037;28;20063;-83
2023/02/03 04:56:08;;;;;;;24.10;7.65;;;4.70;100.00;;;;;;4941128;28;20059;-83
2023/02/03 05:01:11;;;;;;;23.23;7.50;;;4.90;100.00;;;;;;4981426;28;20617;-80
2023/02/03 05:03:38;;;;;;;18.55;7.65;;;4.90;100.00;;;;;;4967244;28;20122;-80
2023/02/03 05:06:05;;;;;;;22.75;7.38;;;5.00;100.00;;;;;;4981915;28;20105;-80
2023/02/03 05:08:32;;;;;;;22.83;8.50;;;5.00;100.00;;;;;;4967658;28;20081;-79
2023/02/03 05:14:14;;;;;;;20.55;8.05;;;5.20;100.00;;;;;;4961101;28;20047;-82
2023/02/03 05:16:41;;;;;;;26.67;8.02;;;5.20;100.00;;;;;;4945048;28;20066;-82
2023/02/03 05:19:08;;;;;;;19.80;7.45;;;5.20;100.00;;;;;;4964845;28;20050;-82
2023/02/03 05:21:36;;;;;;;25.58;7.20;;;5.30;100.00;;;;;;4947669;28;20046;-82
2023/02/03 05:24:06;;;;;;;17.88;6.80;;;5.40;100.00;;;;;;4964592;28;20126;-83
2023/02/03 05:26:34;;;;;;;19.85;5.22;;;5.40;100.00;;;;;;4944692;28;20057;-83
2023/02/03 05:29:01;;;;;;;21.02;6.07;;;5.50;100.00;;;;;;4946143;28;20058;-83
2023/02/03 05:31:29;;;;;;;22.85;6.15;;;5.50;100.00;;;;;;4945717;28;20051;-83
2023/02/03 05:34:01;;;;;;;30.17;5.68;;;5.60;100.00;;;;;;4944045;28;20090;-82
2023/02/03 05:36:28;;;;;;;13.55;4.93;;;5.60;100.00;;;;;;4955249;28;20082;-82
2023/02/03 05:38:57;;;;;;;13.30;4.07;;;5.60;100.00;;;;;;4960604;28;20069;-83
2023/02/03 05:44:13;;;;;;;21.35;4.53;;;5.70;100.00;;;;;;4962285;28;20527;-82
2023/02/03 05:46:43;;;;;;;14.40;3.90;;;5.70;100.00;;;;;;4937951;28;20066;-81
2023/02/03 05:49:11;;;;;;;22.30;11.40;;;5.70;100.00;;;;;;4960433;28;20113;-82
2023/02/03 05:51:38;;;;;;;16.27;3.78;;;5.80;100.00;;;;;;4960003;28;20062;-82
2023/02/03 05:54:05;;;;;;;13.93;3.25;;;5.70;100.00;;;;;;4943602;28;20134;-82
2023/02/03 05:56:32;;;;;;;18.13;3.35;;;5.70;100.00;;;;;;4955937;28;20078;-82
2023/02/03 05:59:00;;;;;;;6.53;2.63;;;5.80;100.00;;;;;;4940835;28;20137;-81
2023/02/03 06:01:28;;;;;;;17.90;3.00;;;5.80;100.00;;;;;;4939179;28;20543;-84
2023/02/03 06:03:55;;;;;;;9.40;2.17;;;5.80;100.00;;;;;;4941461;28;20082;-86
2023/02/03 06:06:22;;;;;;;9.57;2.20;;;5.80;100.00;;;;;;4939791;28;21079;-85
2023/02/03 06:08:55;;;;;;;7.80;1.90;;;5.80;100.00;;;;;;4956011;28;20181;-85
2023/02/03 06:11:25;;;;;;;8.10;1.73;;;5.80;100.00;;;;;;4939434;28;20108;-86
2023/02/03 06:13:52;;;;;;;9.88;1.80;;;5.80;100.00;;;;;;4939815;28;20110;-82
2023/02/03 06:16:20;;;;;;;6.63;1.75;;;5.80;100.00;;;;;;4947435;28;20055;-79
2023/02/03 06:18:48;;;;;;;4.75;1.80;;;5.80;100.00;;;;;;4962394;28;20055;-81
2023/02/03 06:21:15;;;;;;;9.18;1.60;;;5.90;100.00;;;;;;4946458;28;20079;-86
2023/02/03 06:23:42;;;;;;;6.18;1.20;;;5.80;100.00;;;;;;4940055;28;20053;-84
2023/02/03 06:26:09;;;;;;;3.38;1.27;;;5.90;100.00;;;;;;4946128;28;20054;-87
2023/02/03 06:28:37;;;;;;;8.80;1.15;;;5.90;100.00;;;;;;4961123;28;20058;-86
2023/02/03 06:31:05;;;;;;;3.10;1.08;;;5.90;100.00;;;;;;4949879;23;20047;-84
2023/02/03 06:33:32;;;;;;;3.72;1.00;;;5.90;100.00;;;;;;4941902;28;20244;-82
2023/02/03 06:36:00;;;;;;;6.53;0.95;;;5.90;100.00;;;;;;4941690;28;20051;-81
2023/02/03 06:38:28;;;;;;;2.78;1.17;;;6.00;100.00;;;;;;4944085;28;20065;-82
2023/02/03 06:40:54;;;;;;;2.42;1.02;;;6.00;100.00;;;;;;4943321;28;20051;-82
2023/02/03 06:43:21;;;;;;;3.42;1.00;;;6.00;100.00;;;;;;4944360;28;20412;-82
2023/02/03 06:45:48;;;;;;;2.08;1.00;;;6.00;100.00;;;;;;4944475;28;20058;-82
2023/02/03 06:48:15;;;;;;;3.83;0.77;;;6.00;100.00;;;;;;4942526;28;20082;-82
2023/02/03 06:50:43;;;;;;;1.05;0.50;;;6.00;100.00;;;;;;4943652;28;20067;-82
2023/02/03 06:53:13;;;;;;;3.95;1.08;;;6.00;100.00;;;;;;4944445;28;20515;-82
2023/02/03 06:55:40;;;;;;;1.92;0.93;;;6.00;100.00;;;;;;4946233;28;20055;-82
2023/02/03 06:58:06;;;;;;;3.25;0.77;;;6.00;100.00;;;;;;4948806;28;20090;-82
2023/02/03 07:00:34;;;;;;;4.50;0.70;;;6.00;100.00;;;;;;4947378;28;20936;-82
2023/02/03 07:03:03;;;;;;;0.50;0.40;;;6.00;100.00;;;;;;4946108;28;20051;-83
2023/02/03 07:05:31;;;;;;;1.27;0.80;;;6.00;100.00;;;;;;4949008;28;20389;-82
2023/02/03 07:07:58;;;;;;;1.60;0.80;;;6.10;100.00;;;;;;4940098;28;20534;-82
2023/02/03 07:10:25;;;;;;;3.90;0.70;;;6.10;100.00;;;;;;4941302;28;20059;-82
2023/02/03 07:12:53;;;;;;;0.77;0.52;;;6.10;100.00;;;;;;4947795;28;20420;-83
2023/02/03 07:15:20;;;;;;;3.05;1.52;;;6.10;100.00;;;;;;4951949;28;20725;-85
2023/02/03 07:17:53;;;;;;;2.95;1.00;;;6.10;100.00;;;;;;4951792;28;20089;-85
2023/02/03 07:20:21;;;;;;;8.95;1.20;;;6.10;100.00;;;;;;4951938;28;20051;-86
2023/02/03 07:22:56;;;;;;;3.70;0.80;;;6.10;100.00;;;;;;4948963;28;20057;-82
2023/02/03 07:25:24;;;;;;;2.22;0.57;;;6.10;100.00;;;;;;4939847;28;20051;-82
2023/02/03 07:27:51;;;;;;;4.75;0.63;;;6.10;100.00;;;;;;4946045;28;20058;-81
2023/02/03 07:30:18;;;;;;;4.32;0.70;;;6.20;100.00;;;;;;4946851;28;20145;-82
2023/02/03 07:32:49;;;;;;;8.10;1.27;;;6.10;100.00;;;;;;4941605;28;20581;-82
2023/02/03 07:35:17;;;;;;;5.63;1.15;;;6.20;100.00;;;;;;4944003;28;20055;-82
2023/02/03 07:37:44;;;;;;;1.67;0.60;;;6.20;100.00;;;;;;4943366;28;20146;-84
2023/02/03 07:40:12;;;;;;;1.23;0.77;;;6.20;100.00;;;;;;4940818;28;20055;-83
2023/02/03 07:42:44;;;;;;;1.55;0.60;;;6.20;100.00;;;;;;4939256;28;20070;-83
2023/02/03 07:45:12;;;;;;;0.73;0.45;;;6.20;100.00;;;;;;4939014;28;20054;-83
2023/02/03 07:47:41;;;;;;;1.17;0.77;;;6.20;100.00;;;;;;4953157;28;20047;-83
2023/02/03 07:50:09;;;;;;;1.45;0.60;;;6.30;100.00;;;;;;4955969;28;20138;-83
2023/02/03 07:52:37;;;;;;;3.45;0.63;;;6.30;100.00;;;;;;4941847;28;20511;-84
2023/02/03 07:55:04;;;;;;;5.93;0.57;;;6.30;100.00;;;;;;4957545;28;20052;-85
2023/02/03 07:57:31;;;;;;;1.38;0.40;;;6.30;100.00;;;;;;4948567;28;20058;-81
2023/02/03 07:59:58;;;;;;;0.63;0.43;;;6.30;100.00;;;;;;4947422;28;20047;-81
2023/02/03 08:02:25;;;;;;;2.85;0.50;;;6.30;100.00;;;;;;4943145;28;20055;-82
2023/02/03 08:04:51;;;;;;;1.05;0.75;;;6.30;100.00;;;;;;4948365;28;20051;-81
2023/02/03 08:07:18;;;;;;;1.08;0.77;;;6.30;100.00;;;;;;4945044;28;20081;-82
2023/02/03 08:09:45;;;;;;;0.40;0.30;;;6.30;100.00;;;;;;4960013;28;20259;-85
2023/02/03 08:12:12;;;;;;;0.30;0.20;;;6.30;100.00;;;;;;4942428;28;20070;-80
2023/02/03 08:14:39;;;;;;;0.00;0.00;;;6.30;100.00;;;;;;4946633;28;20063;-80
2023/02/03 08:17:06;;;;;;;0.00;0.00;;;6.40;100.00;;;;;;4946905;28;20058;-80
2023/02/03 08:19:34;;;;;;;0.00;0.00;;;6.40;100.00;;;;;;4942317;28;20043;-80
2023/02/03 08:22:00;;;;;;;0.00;0.00;;;6.50;100.00;;;;;;4949214;28;20056;-80
2023/02/03 08:24:27;;;;;;;0.00;0.00;;;6.50;100.00;;;;;;4947631;28;20309;-80
2023/02/03 08:26:54;;;;;;;0.00;0.00;;;6.50;100.00;;;;;;4945791;28;20059;-81
2023/02/03 08:29:21;;;;;;;0.00;0.00;;;6.50;100.00;;;;;;4941612;28;20052;-79
2023/02/03 08:31:48;;;;;;;0.00;0.00;;;6.70;100.00;;;;;;4940308;28;20055;-79
2023/02/03 08:34:15;;;;;;;0.00;0.00;;;6.70;100.00;;;;;;4939268;28;20050;-79
2023/02/03 08:36:43;;;;;;;0.00;0.00;;;6.70;100.00;;;;;;4938955;28;20062;-77
2023/02/03 08:39:11;;;;;;;0.00;0.00;;;6.70;100.00;;;;;;4942070;28;20062;-77
2023/02/03 08:41:37;;;;;;;0.00;0.00;;;6.70;100.00;;;;;;4957020;28;20062;-76
2023/02/03 08:44:04;;;;;;;0.00;0.00;;;6.60;100.00;;;;;;4954312;28;20515;-85
2023/02/03 08:46:32;;;;;;;0.00;0.00;;;6.60;100.00;;;;;;4945548;28;20385;-76
2023/02/03 08:49:01;;;;;;;0.00;0.00;;;6.60;100.00;;;;;;4945284;28;20046;-80
2023/02/03 08:51:29;;;;;;;0.00;0.00;;;6.50;99.40;;;;;;4941520;28;20058;-80
2023/02/03 08:53:55;;;;;;;0.00;0.00;;;6.50;99.30;;;;;;4943897;28;20055;-82
2023/02/03 08:56:25;;;;;;;0.00;0.00;;;6.40;99.50;;;;;;4941743;28;20475;-77
2023/02/03 08:58:52;;;;;;;0.00;0.00;;;6.40;98.40;;;;;;4944676;28;20189;-78
2023/02/03 09:01:21;;;;;;;0.00;0.00;;;6.40;96.60;;;;;;4944245;28;20166;-79
2023/02/03 09:03:48;;;;;;;0.00;0.00;;;6.30;97.20;;;;;;4943997;28;20054;-82
2023/02/03 09:06:15;;;;;;;0.00;0.00;;;6.30;95.60;;;;;;4942588;28;20146;-83
2023/02/03 09:08:44;;;;;;;0.00;0.00;;;6.30;96.20;;;;;;4944729;28;20722;-77
2023/02/03 09:11:15;;;;;;;0.00;0.00;;;6.20;96.90;;;;;;4945548;28;20054;-80
2023/02/03 09:13:44;;;;;;;0.00;0.00;;;6.30;95.40;;;;;;4948477;28;20130;-77
2023/02/03 09:16:12;;;;;;;0.00;0.00;;;6.40;95.00;;;;;;4946443;28;20051;-77
2023/02/03 09:18:39;;;;;;;0.00;0.00;;;6.60;94.60;;;;;;4943349;28;20110;-75
2023/02/03 09:21:12;;;;;;;0.00;0.00;;;6.50;93.90;;;;;;4945410;28;20055;-78
2023/02/03 09:24:01;;;;;;;0.00;0.00;;;6.50;94.30;;;;;;4942186;29;20051;-78
2023/02/03 09:26:28;;;;;;;0.10;0.10;;;6.50;93.60;;;;;;4945202;28;20074;-79
2023/02/03 09:28:55;;;;;;;0.10;0.10;;;6.70;90.80;;;;;;4942687;28;20408;-78
2023/02/03 09:31:22;;;;;;;0.00;0.00;;;6.60;92.20;;;;;;4948755;28;20129;-78
2023/02/03 09:33:49;;;;;;;0.00;0.00;;;6.60;92.90;;;;;;4945903;28;20097;-76
2023/02/03 09:36:16;;;;;;;0.00;0.00;;;6.50;94.40;;;;;;4945783;28;20059;-77
2023/02/03 09:38:43;;;;;;;0.00;0.00;;;6.40;95.20;;;;;;4949557;28;20051;-85
2023/02/03 09:41:11;;;;;;;0.00;0.00;;;6.30;96.70;;;;;;4947892;28;20066;-78
2023/02/03 09:43:45;;;;;;;0.00;0.00;;;6.40;97.00;;;;;;4947219;28;20055;-93
2023/02/03 09:46:20;;;;;;;0.00;0.00;;;6.50;94.90;;;;;;4953217;28;20055;-82
2023/02/03 09:48:53;;;;;;;0.00;0.00;;;6.50;95.00;;;;;;4947923;29;20094;-80
2023/02/03 09:51:26;;;;;;;0.00;0.00;;;6.40;94.80;;;;;;4947696;28;20118;-81
2023/02/03 09:54:23;;;;;;;0.00;0.00;;;6.50;93.10;;;;;;4949183;29;20055;-81
2023/02/03 09:56:54;;;;;;;0.00;0.00;;;6.50;91.50;;;;;;4943043;29;20055;-79
2023/02/03 09:59:25;;;;;;;0.00;0.00;;;6.60;92.30;;;;;;4948141;29;20586;-81
2023/02/03 10:02:16;;;;;;;0.00;0.00;;;6.70;92.50;;;;;;4944182;28;20060;-79
2023/02/03 10:05:06;;;;;;;0.00;0.00;;;6.90;90.90;;;;;;4945378;28;21385;-78
2023/02/03 10:07:57;;;;;;;0.00;0.00;;;7.20;90.60;;;;;;4940861;28;20075;-79
2023/02/03 10:10:39;;;;;;;0.00;0.00;;;7.30;87.30;;;;;;4959077;28;20054;-79
2023/02/03 10:13:09;;;;;;;0.00;0.00;;;7.40;85.10;;;;;;4945837;28;20055;-81
2023/02/03 10:16:05;;;;;;;0.00;0.00;;;7.40;85.80;;;;;;4948800;28;20134;-82
2023/02/03 10:18:39;;;;;;;0.00;0.00;;;7.50;85.90;;;;;;4935077;28;20051;-82
2023/02/03 10:21:25;;;;;;;1.30;1.30;;;7.60;86.90;;;;;;4948203;28;20083;-81
2023/02/03 10:23:55;;;;;;;0.00;0.00;;;7.70;87.30;;;;;;4959741;23;20982;-77
2023/02/03 10:26:26;;;;;;;0.00;0.00;;;8.00;85.40;;;;;;4952936;28;20129;-78
2023/02/03 10:29:02;;;;;;;0.00;0.00;;;8.00;83.20;;;;;;4945611;28;20099;-80
2023/02/03 10:31:34;;;;;;;0.00;0.00;;;7.70;82.70;;;;;;4952162;28;20488;-80
2023/02/03 10:34:13;;;;;;;0.00;0.00;;;7.70;84.90;;;;;;4950922;28;20063;-79
2023/02/03 10:36:54;;;;;;;5.50;0.63;;;7.90;84.80;;;;;;4948691;28;20389;-79
2023/02/03 10:39:50;;;;;;;0.98;0.98;;;8.00;83.40;;;;;;4951684;28;20440;-85
2023/02/03 10:42:18;;;;;;;;;;;8.10;82.00;;;;;;4970857;28;20059;-78
2023/02/03 10:44:56;;;;;;;0.00;0.00;;;8.00;80.80;;;;;;4959691;28;19926;-78
2023/02/03 10:47:35;;;;;;;0.10;0.10;;;7.80;79.50;;;;;;4950257;28;20054;-78
2023/02/03 10:50:06;;;;;;;0.00;0.00;;;7.70;81.00;;;;;;4948041;28;20488;-80
2023/02/03 10:52:35;;;;;;;0.00;0.00;;;7.60;79.80;;;;;;4948767;28;20047;-86
2023/02/03 10:55:27;;;;;;;0.00;0.00;;;7.50;79.90;;;;;;4962935;28;20459;-84
2023/02/03 10:57:55;;;;;;;0.00;0.00;;;7.40;80.60;;;;;;4966891;28;20587;-85
2023/02/03 11:00:34;;;;;;;0.00;0.00;;;7.40;81.10;;;;;;4950949;28;20109;-87
2023/02/03 11:03:01;;;;;;;0.00;0.00;;;7.30;80.30;;;;;;4949402;28;20050;-84
2023/02/03 11:05:33;;;;;;;0.00;0.00;;;7.30;80.00;;;;;;4955733;28;20044;-87
2023/02/03 11:08:00;;;;;;;0.00;0.00;;;7.20;81.20;;;;;;4955966;28;20046;-86
2023/02/03 11:10:36;;;;;;;0.00;0.00;;;7.20;80.10;;;;;;4955083;28;20647;-86
2023/02/03 11:13:24;;;;;;;0.00;0.00;;;7.10;80.30;;;;;;4950089;28;20484;-87
2023/02/03 11:15:57;;;;;;;0.00;0.00;;;7.10;80.90;;;;;;4967085;28;20069;-87
2023/02/03 11:19:01;;;;;;;0.00;0.00;;;7.00;79.20;;;;;;4966842;28;20073;-86
2023/02/03 11:21:31;;;;;;;0.00;0.00;;;6.80;79.40;;;;;;4955808;28;20359;-87
2023/02/03 11:24:04;;;;;;;0.00;0.00;;;6.70;80.70;;;;;;4951755;28;20051;-85
2023/02/03 11:26:54;;;;;;;0.00;0.00;;;6.60;80.40;;;;;;4960235;28;20474;-83
2023/02/03 11:29:33;;;;;;;0.00;0.00;;;6.60;80.60;;;;;;4951590;28;20058;-85
2023/02/03 11:32:22;;;;;;;0.00;0.00;;;6.70;82.10;;;;;;4951506;28;20054;-83
2023/02/03 11:35:23;;;;;;;0.10;0.10;;;6.80;82.00;;;;;;4955345;28;20061;-84
2023/02/03 11:37:55;;;;;;;0.00;0.00;;;6.90;80.90;;;;;;4945607;28;20050;-85
2023/02/03 11:40:25;;;;;;;0.00;0.00;;;6.90;79.40;;;;;;4960187;28;20109;-86
2023/02/03 11:42:56;;;;;;;0.00;0.00;;;6.90;81.40;;;;;;4952412;28;20061;-85
2023/02/03 11:45:26;;;;;;;0.00;0.00;;;6.90;79.90;;;;;;4952289;28;20047;-85
2023/02/03 11:48:05;;;;;;;0.00;0.00;;;6.90;81.40;;;;;;4947040;28;20054;-84
2023/02/03 11:50:58;;;;;;;0.00;0.00;;;6.90;80.60;;;;;;4972637;28;20053;-85
2023/02/03 11:53:27;;;;;;;0.00;0.00;;;7.00;81.00;;;;;;4948176;28;20674;-85
2023/02/03 11:55:57;;;;;;;0.00;0.00;;;7.00;80.40;;;;;;4949183;28;20055;-84
2023/02/03 11:58:39;;;;;;;0.20;0.20;;;7.10;80.40;;;;;;4964437;28;20133;-85
2023/02/03 12:01:21;;;;;;;0.00;0.00;;;7.10;80.60;;;;;;4964842;28;20376;-85
2023/02/03 12:03:57;;;;;;;0.00;0.00;;;7.10;79.90;;;;;;4951812;28;20142;-85
2023/02/03 12:06:48;;;;;;;0.00;0.00;;;7.20;79.20;;;;;;4948595;28;20053;-79
2023/02/03 12:09:34;;;;;;;0.00;0.00;;;7.20;79.50;;;;;;4947542;28;20054;-78
2023/02/03 12:15:50;;;;;;;0.00;0.00;;;7.10;79.30;;;;;;4999205;23;20084;-81
2023/02/03 12:21:37;;;;;;;5.47;1.27;;;7.30;79.60;;;;;;5004526;28;20046;-78
2023/02/03 12:24:04;;;;;;;0.35;0.35;;;7.30;77.70;;;;;;5001578;28;20054;-80
2023/02/03 12:27:03;;;;;;;0.00;0.00;;;7.30;77.90;;;;;;5014608;28;20046;-80
2023/02/03 12:29:44;;;;;;;0.10;0.10;;;7.40;78.20;;;;;;5008624;28;20049;-78
2023/02/03 12:32:32;;;;;;;0.00;0.00;;;7.40;77.40;;;;;;4999227;28;20129;-79
2023/02/03 12:35:16;;;;;;;3.50;0.65;;;7.40;76.60;;;;;;4993632;28;20753;-78
2023/02/03 12:38:02;;;;;;;0.00;0.00;;;7.50;76.30;;;;;;4984408;28;20094;-76
2023/02/03 12:40:45;;;;;;;0.00;0.00;;;7.50;75.40;;;;;;5000092;28;20377;-77
2023/02/03 12:43:14;;;;;;;0.00;0.00;;;7.60;76.50;;;;;;4990027;28;20066;-79
2023/02/03 12:45:52;;;;;;;0.20;0.20;;;7.70;75.10;;;;;;5011365;28;20042;-80
2023/02/03 12:48:28;;;;;;;0.00;0.00;;;7.70;75.40;;;;;;4994250;28;20058;-83
2023/02/03 12:51:07;;;;;;;0.00;0.00;;;7.50;77.00;;;;;;4991639;28;20053;-78
2023/02/03 12:53:40;;;;;;;0.00;0.00;;;7.40;76.80;;;;;;4987979;28;20046;-81
2023/02/03 12:56:09;;;;;;;0.00;0.00;;;7.20;78.90;;;;;;4990461;28;20053;-80
2023/02/03 12:58:56;;;;;;;0.00;0.00;;;7.10;80.80;;;;;;4991266;28;20499;-84
2023/02/03 13:01:49;;;;;;;0.17;0.17;;;7.00;80.30;;;;;;4988318;28;20211;-85
2023/02/03 13:04:53;;;;;;;0.00;0.00;;;7.00;81.20;;;;;;4986722;28;20326;-81
2023/02/03 13:07:45;;;;;;;0.00;0.00;;;6.90;82.20;;;;;;4951575;28;20053;-81
2023/02/03 13:10:27;;;;;;;0.00;0.00;;;6.90;83.40;;;;;;5008488;28;20053;-80
2023/02/03 13:12:57;;;;;;;0.00;0.00;;;6.90;84.90;;;;;;4986388;28;20050;-81
2023/02/03 13:15:29;;;;;;;2.17;1.35;;;6.90;84.70;;;;;;4993683;28;20049;-80
2023/02/03 13:18:05;;;;;;;0.00;0.00;;;6.80;84.40;;;;;;4987726;28;20468;-81
2023/02/03 13:20:34;;;;;;;0.00;0.00;;;6.80;84.20;;;;;;4996739;28;20060;-84
2023/02/03 13:23:07;;;;;;;0.10;0.10;;;6.70;85.30;;;;;;5003194;28;20080;-83
2023/02/03 13:26:04;;;;;;;0.00;0.00;;;6.70;87.00;;;;;;4985242;28;20076;-84
2023/02/03 13:28:44;;;;;;;0.00;0.00;;;6.70;87.00;;;;;;4989280;28;20801;-84
2023/02/03 13:31:20;;;;;;;0.00;0.00;;;6.70;86.20;;;;;;4987326;28;20249;-84
2023/02/03 13:34:14;;;;;;;0.00;0.00;;;6.60;87.70;;;;;;4984320;28;20653;-84
2023/02/03 13:37:15;;;;;;;0.00;0.00;;;6.50;88.50;;;;;;4981968;28;20054;-83
2023/02/03 13:40:06;;;;;;;0.00;0.00;;;6.40;89.70;;;;;;5004688;28;20477;-82